createdAt,value
2022-11-13T00:00:25.386Z,11.43
2022-11-13T00:01:24.561Z,11.51
2022-11-13T00:02:24.639Z,11.50
2022-11-13T00:03:24.535Z,11.54
2022-11-13T00:04:24.523Z,11.47
2022-11-13T00:05:24.519Z,11.54
2022-11-13T00:06:24.613Z,11.48
2022-11-13T00:07:24.582Z,11.51
2022-11-13T00:08:24.578Z,11.51
2022-11-13T00:09:24.583Z,11.52
2022-11-13T00:10:24.469Z,11.51
2022-11-13T00:11:24.506Z,11.57
2022-11-13T00:12:24.442Z,11.51
2022-11-13T00:13:30.009Z,11.52
2022-11-13T00:14:24.460Z,11.57
2022-11-13T00:15:24.414Z,11.68
2022-11-13T00:16:24.410Z,11.68
2022-11-13T00:17:24.390Z,11.62
2022-11-13T00:18:24.466Z,11.62
2022-11-13T00:19:24.424Z,11.69
2022-11-13T00:20:24.386Z,11.65
2022-11-13T00:21:24.343Z,11.65
2022-11-13T00:22:24.462Z,11.72
2022-11-13T00:23:24.371Z,11.69
2022-11-13T00:24:24.335Z,11.60
2022-11-13T00:25:24.348Z,11.66
2022-11-13T00:26:24.298Z,11.66
2022-11-13T00:27:24.303Z,11.62
2022-11-13T00:28:24.457Z,11.65
2022-11-13T00:29:24.286Z,11.68
2022-11-13T00:30:24.240Z,11.63
2022-11-13T00:31:24.270Z,11.65
2022-11-13T00:32:24.222Z,11.63
2022-11-13T00:33:45.281Z,11.66
2022-11-13T00:34:46.651Z,11.62
2022-11-13T00:35:25.188Z,11.73
2022-11-13T00:36:26.242Z,11.70
2022-11-13T00:37:24.182Z,11.77
2022-11-13T00:38:24.393Z,11.66
2022-11-13T00:39:24.169Z,11.73
2022-11-13T00:40:24.136Z,11.75
2022-11-13T00:41:24.129Z,11.72
2022-11-13T00:42:24.149Z,11.80
2022-11-13T00:43:24.098Z,11.73
2022-11-13T00:44:24.089Z,11.72
2022-11-13T00:45:24.086Z,11.78
2022-11-13T00:46:24.073Z,11.84
2022-11-13T00:47:24.081Z,11.83
2022-11-13T00:48:24.060Z,11.80
2022-11-13T00:49:24.034Z,11.73
2022-11-13T00:50:24.039Z,11.77
2022-11-13T00:51:24.026Z,11.70
2022-11-13T00:52:24.038Z,11.66
2022-11-13T00:53:24.007Z,11.65
2022-11-13T00:54:24.114Z,11.65
2022-11-13T00:55:23.972Z,11.75
2022-11-13T00:56:23.971Z,11.66
2022-11-13T00:57:23.952Z,11.63
2022-11-13T00:58:23.950Z,11.65
2022-11-13T00:59:23.967Z,11.68
2022-11-13T01:00:23.924Z,11.62
2022-11-13T01:01:23.956Z,11.72
2022-11-13T01:02:23.926Z,11.75
2022-11-13T01:03:23.888Z,11.80
2022-11-13T01:04:23.989Z,11.75
2022-11-13T01:05:23.888Z,11.77
2022-11-13T01:06:23.854Z,11.84
2022-11-13T01:07:23.851Z,11.81
2022-11-13T01:08:23.852Z,11.83
2022-11-13T01:09:23.850Z,11.80
2022-11-13T01:10:23.910Z,11.90
2022-11-13T01:11:23.832Z,11.86
2022-11-13T01:12:23.787Z,11.84
2022-11-13T01:13:23.841Z,11.83
2022-11-13T01:14:23.766Z,11.78
2022-11-13T01:15:23.780Z,11.77
2022-11-13T01:16:23.757Z,11.80
2022-11-13T01:17:23.739Z,11.73
2022-11-13T01:18:23.757Z,11.78
2022-11-13T01:19:23.736Z,11.84
2022-11-13T01:20:23.694Z,11.78
2022-11-13T01:21:23.707Z,11.84
2022-11-13T01:22:23.678Z,11.87
2022-11-13T01:23:23.675Z,11.83
2022-11-13T01:24:23.679Z,11.83
2022-11-13T01:25:23.643Z,11.69
2022-11-13T01:26:23.743Z,11.63
2022-11-13T01:27:23.683Z,11.72
2022-11-13T01:28:23.632Z,11.69
2022-11-13T01:29:23.635Z,11.75
2022-11-13T01:30:23.583Z,11.77
2022-11-13T01:31:23.593Z,11.78
2022-11-13T01:32:23.579Z,11.84
2022-11-13T01:33:23.594Z,11.80
2022-11-13T01:34:23.550Z,11.80
2022-11-13T01:35:23.535Z,11.90
2022-11-13T01:36:23.562Z,11.86
2022-11-13T01:37:23.511Z,11.81
2022-11-13T01:38:23.508Z,11.88
2022-11-13T01:39:23.497Z,11.81
2022-11-13T01:40:23.489Z,11.95
2022-11-13T01:41:24.002Z,11.88
2022-11-13T01:42:23.587Z,11.81
2022-11-13T01:43:23.512Z,11.87
2022-11-13T01:44:23.479Z,11.84
2022-11-13T01:45:23.462Z,11.77
2022-11-13T01:46:23.463Z,11.73
2022-11-13T01:47:23.434Z,11.70
2022-11-13T01:48:23.407Z,11.72
2022-11-13T01:49:23.407Z,11.73
2022-11-13T01:50:23.370Z,11.73
2022-11-13T01:51:23.361Z,11.80
2022-11-13T01:52:23.359Z,11.80
2022-11-13T01:53:23.341Z,11.77
2022-11-13T01:54:23.528Z,11.63
2022-11-13T01:55:23.318Z,11.69
2022-11-13T01:56:23.369Z,11.69
2022-11-13T01:57:23.299Z,11.72
2022-11-13T01:58:23.416Z,11.69
2022-11-13T01:59:23.280Z,11.63
2022-11-13T02:00:23.296Z,11.65
2022-11-13T02:01:23.396Z,11.73
2022-11-13T02:02:23.235Z,11.65
2022-11-13T02:03:23.237Z,11.69
2022-11-13T02:04:23.209Z,11.66
2022-11-13T02:05:23.217Z,11.78
2022-11-13T02:06:23.242Z,11.77
2022-11-13T02:07:23.346Z,11.80
2022-11-13T02:08:23.198Z,11.77
2022-11-13T02:09:23.198Z,11.78
2022-11-13T02:10:23.153Z,11.75
2022-11-13T02:11:23.135Z,11.78
2022-11-13T02:12:23.193Z,11.77
2022-11-13T02:13:23.129Z,11.83
2022-11-13T02:14:23.203Z,11.83
2022-11-13T02:15:23.093Z,11.80
2022-11-13T02:16:23.105Z,11.91
2022-11-13T02:17:23.519Z,11.84
2022-11-13T02:18:23.105Z,11.84
2022-11-13T02:19:23.112Z,11.84
2022-11-13T02:20:23.083Z,11.80
2022-11-13T02:21:23.077Z,11.84
2022-11-13T02:22:23.094Z,11.86
2022-11-13T02:23:23.018Z,11.84
2022-11-13T02:24:23.000Z,11.90
2022-11-13T02:25:22.993Z,11.83
2022-11-13T02:26:22.977Z,11.78
2022-11-13T02:27:23.046Z,11.84
2022-11-13T02:28:22.982Z,11.77
2022-11-13T02:29:22.943Z,11.86
2022-11-13T02:30:26.934Z,11.87
2022-11-13T02:31:22.926Z,11.86
2022-11-13T02:32:22.902Z,11.87
2022-11-13T02:33:22.914Z,11.84
2022-11-13T02:34:22.890Z,11.86
2022-11-13T02:35:22.870Z,11.78
2022-11-13T02:36:22.868Z,11.77
2022-11-13T02:37:22.863Z,11.84
2022-11-13T02:38:22.859Z,11.77
2022-11-13T02:39:22.835Z,11.69
2022-11-13T02:40:22.811Z,11.73
2022-11-13T02:41:22.818Z,11.78
2022-11-13T02:42:22.803Z,11.80
2022-11-13T02:43:22.795Z,11.81
2022-11-13T02:44:22.777Z,11.83
2022-11-13T02:45:22.764Z,11.87
2022-11-13T02:46:22.853Z,11.88
2022-11-13T02:47:22.807Z,11.91
2022-11-13T02:48:22.746Z,11.86
2022-11-13T02:49:22.727Z,11.94
2022-11-13T02:50:22.705Z,11.97
2022-11-13T02:51:22.690Z,11.88
2022-11-13T02:52:22.761Z,11.88
2022-11-13T02:53:22.679Z,11.83
2022-11-13T02:54:22.673Z,11.81
2022-11-13T02:55:22.647Z,11.81
2022-11-13T02:56:22.657Z,11.90
2022-11-13T02:57:22.624Z,11.87
2022-11-13T02:58:22.617Z,11.86
2022-11-13T02:59:22.612Z,11.84
2022-11-13T03:00:22.605Z,11.83
2022-11-13T03:01:22.644Z,11.86
2022-11-13T03:02:22.700Z,11.77
2022-11-13T03:03:48.163Z,11.80
2022-11-13T03:04:23.562Z,11.77
2022-11-13T03:05:22.559Z,11.72
2022-11-13T03:06:22.538Z,11.77
2022-11-13T03:07:22.583Z,11.83
2022-11-13T03:08:22.510Z,11.80
2022-11-13T03:09:22.509Z,11.84
2022-11-13T03:10:22.495Z,11.80
2022-11-13T03:11:22.494Z,11.78
2022-11-13T03:12:22.472Z,11.78
2022-11-13T03:13:22.468Z,11.69
2022-11-13T03:14:22.434Z,11.66
2022-11-13T03:15:22.427Z,11.62
2022-11-13T03:16:22.461Z,11.63
2022-11-13T03:17:22.425Z,11.66
2022-11-13T03:18:22.511Z,11.69
2022-11-13T03:19:22.406Z,11.63
2022-11-13T03:20:22.369Z,11.66
2022-11-13T03:21:22.363Z,11.63
2022-11-13T03:22:22.366Z,11.70
2022-11-13T03:23:22.340Z,11.68
2022-11-13T03:24:22.338Z,11.81
2022-11-13T03:25:22.331Z,11.62
2022-11-13T03:26:22.311Z,11.66
2022-11-13T03:27:22.313Z,11.68
2022-11-13T03:28:22.301Z,11.60
2022-11-13T03:29:22.298Z,11.62
2022-11-13T03:30:22.267Z,11.66
2022-11-13T03:31:22.264Z,11.57
2022-11-13T03:32:22.238Z,11.44
2022-11-13T03:33:22.250Z,11.51
2022-11-13T03:34:22.346Z,11.51
2022-11-13T03:35:22.227Z,11.50
2022-11-13T03:36:22.209Z,11.37
2022-11-13T03:37:22.285Z,11.41
2022-11-13T03:38:22.187Z,11.51
2022-11-13T03:39:22.175Z,11.51
2022-11-13T03:40:22.191Z,11.50
2022-11-13T03:41:22.142Z,11.55
2022-11-13T03:42:22.144Z,11.62
2022-11-13T03:43:22.146Z,11.54
2022-11-13T03:44:22.136Z,11.59
2022-11-13T03:45:22.108Z,11.60
2022-11-13T03:46:22.123Z,11.65
2022-11-13T03:47:22.072Z,11.62
2022-11-13T03:48:22.071Z,11.72
2022-11-13T03:49:22.066Z,11.65
2022-11-13T03:50:22.169Z,11.77
2022-11-13T03:51:22.049Z,11.81
2022-11-13T03:52:22.024Z,11.87
2022-11-13T03:53:22.022Z,11.87
2022-11-13T03:54:21.997Z,11.90
2022-11-13T03:55:21.998Z,11.88
2022-11-13T03:56:21.976Z,11.95
2022-11-13T03:57:21.972Z,11.97
2022-11-13T03:58:21.956Z,11.95
2022-11-13T03:59:21.952Z,11.99
2022-11-13T04:00:22.003Z,12.04
2022-11-13T04:01:21.980Z,11.97
2022-11-13T04:02:21.931Z,11.88
2022-11-13T04:03:21.910Z,11.87
2022-11-13T04:04:21.887Z,11.83
2022-11-13T04:05:23.058Z,11.78
2022-11-13T04:06:22.001Z,11.75
2022-11-13T04:07:21.911Z,11.72
2022-11-13T04:08:21.850Z,11.72
2022-11-13T04:09:21.839Z,11.83
2022-11-13T04:10:21.827Z,11.80
2022-11-13T04:11:21.831Z,11.87
2022-11-13T04:12:21.799Z,11.88
2022-11-13T04:13:21.800Z,11.94
2022-11-13T04:14:21.821Z,11.95
2022-11-13T04:15:21.756Z,12.02
2022-11-13T04:16:21.795Z,11.95
2022-11-13T04:17:21.740Z,12.07
2022-11-13T04:18:21.725Z,12.02
2022-11-13T04:19:21.918Z,11.95
2022-11-13T04:20:21.701Z,11.95
2022-11-13T04:21:21.695Z,11.78
2022-11-13T04:22:21.799Z,11.72
2022-11-13T04:23:21.668Z,11.75
2022-11-13T04:24:21.707Z,11.63
2022-11-13T04:25:21.646Z,11.51
2022-11-13T04:26:21.643Z,11.51
2022-11-13T04:27:21.634Z,11.52
2022-11-13T04:28:21.618Z,11.52
2022-11-13T04:29:21.620Z,11.52
2022-11-13T04:30:21.598Z,11.50
2022-11-13T04:31:21.581Z,11.57
2022-11-13T04:32:21.573Z,11.60
2022-11-13T04:33:21.644Z,11.55
2022-11-13T04:34:21.572Z,11.54
2022-11-13T04:35:21.546Z,11.66
2022-11-13T04:36:21.568Z,11.66
2022-11-13T04:37:21.532Z,11.77
2022-11-13T04:38:21.640Z,11.78
2022-11-13T04:39:21.563Z,11.73
2022-11-13T04:40:21.484Z,11.63
2022-11-13T04:41:21.496Z,11.63
2022-11-13T04:42:21.490Z,11.63
2022-11-13T04:43:21.471Z,11.65
2022-11-13T04:44:21.455Z,11.78
2022-11-13T04:45:21.445Z,11.83
2022-11-13T04:46:21.442Z,11.86
2022-11-13T04:47:21.425Z,11.87
2022-11-13T04:48:21.400Z,11.78
2022-11-13T04:49:21.392Z,11.84
2022-11-13T04:50:21.411Z,11.80
2022-11-13T04:51:21.375Z,11.75
2022-11-13T04:52:21.374Z,11.77
2022-11-13T04:53:21.371Z,11.80
2022-11-13T04:54:27.352Z,11.78
2022-11-13T04:55:22.332Z,11.80
2022-11-13T04:56:21.343Z,11.66
2022-11-13T04:57:21.304Z,11.63
2022-11-13T04:58:21.283Z,11.63
2022-11-13T04:59:21.276Z,11.62
2022-11-13T05:00:21.272Z,11.57
2022-11-13T05:01:21.282Z,11.57
2022-11-13T05:02:21.263Z,11.57
2022-11-13T05:03:21.224Z,11.69
2022-11-13T05:04:21.246Z,11.65
2022-11-13T05:05:21.213Z,11.70
2022-11-13T05:06:21.199Z,11.60
2022-11-13T05:07:21.290Z,11.68
2022-11-13T05:08:21.173Z,11.57
2022-11-13T05:09:21.160Z,11.50
2022-11-13T05:10:21.278Z,11.47
2022-11-13T05:11:21.144Z,11.41
2022-11-13T05:12:21.132Z,11.43
2022-11-13T05:13:21.114Z,11.37
2022-11-13T05:14:21.213Z,11.44
2022-11-13T05:15:30.037Z,11.32
2022-11-13T05:16:21.106Z,11.29
2022-11-13T05:17:21.079Z,11.26
2022-11-13T05:18:21.068Z,11.26
2022-11-13T05:19:21.060Z,11.26
2022-11-13T05:20:21.045Z,11.36
2022-11-13T05:21:21.062Z,11.32
2022-11-13T05:22:21.022Z,11.23
2022-11-13T05:23:21.017Z,11.18
2022-11-13T05:24:21.000Z,11.15
2022-11-13T05:25:20.992Z,11.17
2022-11-13T05:26:21.107Z,11.17
2022-11-13T05:27:20.969Z,11.23
2022-11-13T05:28:20.970Z,11.23
2022-11-13T05:29:20.941Z,11.29
2022-11-13T05:30:20.931Z,11.19
2022-11-13T05:31:20.929Z,11.32
2022-11-13T05:32:20.939Z,11.37
2022-11-13T05:33:20.906Z,11.36
2022-11-13T05:34:20.893Z,11.40
2022-11-13T05:35:20.880Z,11.37
2022-11-13T05:36:20.872Z,11.43
2022-11-13T05:37:20.900Z,11.43
2022-11-13T05:38:20.860Z,11.52
2022-11-13T05:39:20.853Z,11.52
2022-11-13T05:40:20.848Z,11.44
2022-11-13T05:41:20.811Z,11.48
2022-11-13T05:42:20.939Z,11.45
2022-11-13T05:43:20.816Z,11.37
2022-11-13T05:44:20.789Z,11.40
2022-11-13T05:45:20.770Z,11.33
2022-11-13T05:46:20.764Z,11.29
2022-11-13T05:47:20.747Z,11.26
2022-11-13T05:48:20.746Z,11.26
2022-11-13T05:49:20.725Z,11.25
2022-11-13T05:50:20.730Z,11.23
2022-11-13T05:51:20.701Z,11.32
2022-11-13T05:52:20.689Z,11.43
2022-11-13T05:53:20.704Z,11.40
2022-11-13T05:54:20.667Z,11.41
2022-11-13T05:55:23.367Z,11.50
2022-11-13T05:56:20.658Z,11.52
2022-11-13T05:57:20.649Z,11.55
2022-11-13T05:58:20.766Z,11.62
2022-11-13T05:59:20.635Z,11.75
2022-11-13T06:00:20.614Z,11.62
2022-11-13T06:01:20.592Z,11.66
2022-11-13T06:02:20.657Z,11.80
2022-11-13T06:03:20.570Z,11.86
2022-11-13T06:04:20.570Z,11.83
2022-11-13T06:05:20.560Z,11.88
2022-11-13T06:06:20.540Z,11.84
2022-11-13T06:07:20.593Z,11.81
2022-11-13T06:08:20.523Z,11.84
2022-11-13T06:09:20.519Z,11.94
2022-11-13T06:10:20.502Z,11.84
2022-11-13T06:11:20.481Z,11.88
2022-11-13T06:12:20.480Z,11.83
2022-11-13T06:13:20.480Z,11.86
2022-11-13T06:14:20.468Z,11.83
2022-11-13T06:15:20.442Z,11.84
2022-11-13T06:16:20.429Z,11.80
2022-11-13T06:17:20.421Z,11.83
2022-11-13T06:18:25.338Z,11.87
2022-11-13T06:19:21.407Z,11.94
2022-11-13T06:20:20.392Z,11.86
2022-11-13T06:21:20.382Z,11.88
2022-11-13T06:22:20.360Z,11.91
2022-11-13T06:23:20.348Z,11.88
2022-11-13T06:24:20.353Z,12.02
2022-11-13T06:25:20.331Z,11.91
2022-11-13T06:26:20.327Z,11.94
2022-11-13T06:27:20.310Z,12.00
2022-11-13T06:28:20.297Z,11.95
2022-11-13T06:29:20.311Z,12.09
2022-11-13T06:30:20.386Z,12.03
2022-11-13T06:31:20.276Z,12.00
2022-11-13T06:32:20.257Z,11.97
2022-11-13T06:33:20.250Z,11.94
2022-11-13T06:34:20.248Z,12.02
2022-11-13T06:35:20.217Z,12.04
2022-11-13T06:36:20.214Z,12.07
2022-11-13T06:37:20.206Z,12.04
2022-11-13T06:38:20.188Z,12.09
2022-11-13T06:39:20.245Z,11.99
2022-11-13T06:40:20.180Z,12.00
2022-11-13T06:41:20.152Z,11.83
2022-11-13T06:42:20.168Z,11.78
2022-11-13T06:43:20.139Z,11.77
2022-11-13T06:44:20.131Z,11.65
2022-11-13T06:45:20.108Z,11.66
2022-11-13T06:46:20.207Z,11.73
2022-11-13T06:47:20.089Z,11.63
2022-11-13T06:48:20.088Z,11.65
2022-11-13T06:49:20.072Z,11.62
2022-11-13T06:50:20.057Z,11.59
2022-11-13T06:51:20.056Z,11.63
2022-11-13T06:52:20.050Z,11.65
2022-11-13T06:53:20.023Z,11.57
2022-11-13T06:54:20.008Z,11.54
2022-11-13T06:55:19.996Z,11.57
2022-11-13T06:56:19.995Z,11.57
2022-11-13T06:57:19.993Z,11.62
2022-11-13T06:58:19.969Z,11.66
2022-11-13T06:59:19.953Z,11.63
2022-11-13T07:00:19.963Z,11.72
2022-11-13T07:01:20.099Z,11.65
2022-11-13T07:02:20.042Z,11.60
2022-11-13T07:03:19.915Z,11.62
2022-11-13T07:04:19.919Z,11.68
2022-11-13T07:05:19.894Z,11.60
2022-11-13T07:06:19.876Z,11.63
2022-11-13T07:07:19.935Z,11.77
2022-11-13T07:08:19.864Z,11.73
2022-11-13T07:09:19.845Z,11.68
2022-11-13T07:10:19.858Z,11.68
2022-11-13T07:11:19.826Z,11.62
2022-11-13T07:12:19.816Z,11.65
2022-11-13T07:13:19.800Z,11.62
2022-11-13T07:14:19.794Z,11.54
2022-11-13T07:15:19.800Z,11.59
2022-11-13T07:16:19.779Z,11.55
2022-11-13T07:17:19.761Z,11.47
2022-11-13T07:18:23.820Z,11.44
2022-11-13T07:19:19.746Z,11.45
2022-11-13T07:20:19.733Z,11.41
2022-11-13T07:21:19.724Z,11.41
2022-11-13T07:22:19.699Z,11.51
2022-11-13T07:23:19.708Z,11.50
2022-11-13T07:24:19.689Z,11.45
2022-11-13T07:25:19.671Z,11.59
2022-11-13T07:26:19.702Z,11.59
2022-11-13T07:27:19.650Z,11.60
2022-11-13T07:28:19.650Z,11.63
2022-11-13T07:29:19.636Z,11.65
2022-11-13T07:30:19.624Z,11.69
2022-11-13T07:31:19.620Z,11.68
2022-11-13T07:32:19.608Z,11.60
2022-11-13T07:33:19.588Z,11.68
2022-11-13T07:34:19.679Z,11.68
2022-11-13T07:35:19.575Z,11.66
2022-11-13T07:36:19.550Z,11.66
2022-11-13T07:37:19.538Z,11.68
2022-11-13T07:38:19.527Z,11.63
2022-11-13T07:39:19.513Z,11.62
2022-11-13T07:40:19.529Z,11.57
2022-11-13T07:41:19.503Z,11.50
2022-11-13T07:42:19.489Z,11.51
2022-11-13T07:43:19.478Z,11.52
2022-11-13T07:44:40.152Z,11.47
2022-11-13T07:45:20.462Z,11.37
2022-11-13T07:46:19.444Z,11.41
2022-11-13T07:47:19.424Z,11.41
2022-11-13T07:48:19.423Z,11.41
2022-11-13T07:49:19.431Z,11.44
2022-11-13T07:50:19.506Z,11.48
2022-11-13T07:51:19.394Z,11.59
2022-11-13T07:52:19.380Z,11.59
2022-11-13T07:53:19.361Z,11.60
2022-11-13T07:54:19.359Z,11.62
2022-11-13T07:55:19.361Z,11.59
2022-11-13T07:56:22.976Z,11.62
2022-11-13T07:57:19.317Z,11.62
2022-11-13T07:58:19.304Z,11.60
2022-11-13T07:59:19.304Z,11.57
2022-11-13T08:00:19.303Z,11.66
2022-11-13T08:01:19.351Z,11.65
2022-11-13T08:02:22.323Z,11.65
2022-11-13T08:03:20.284Z,11.57
2022-11-13T08:04:19.247Z,11.54
2022-11-13T08:05:19.231Z,11.54
2022-11-13T08:06:19.327Z,11.59
2022-11-13T08:07:19.284Z,11.57
2022-11-13T08:08:19.204Z,11.60
2022-11-13T08:09:19.205Z,11.57
2022-11-13T08:10:19.182Z,11.66
2022-11-13T08:11:19.192Z,11.57
2022-11-13T08:12:19.162Z,11.57
2022-11-13T08:13:19.143Z,11.68
2022-11-13T08:14:19.132Z,11.52
2022-11-13T08:15:19.126Z,11.55
2022-11-13T08:16:19.136Z,11.50
2022-11-13T08:17:19.105Z,11.52
2022-11-13T08:18:19.094Z,11.45
2022-11-13T08:19:19.083Z,11.55
2022-11-13T08:20:19.064Z,11.44
2022-11-13T08:21:19.075Z,11.36
2022-11-13T08:22:19.164Z,11.37
2022-11-13T08:23:19.043Z,11.32
2022-11-13T08:24:19.028Z,11.37
2022-11-13T08:25:19.010Z,11.33
2022-11-13T08:26:19.013Z,11.33
2022-11-13T08:27:19.015Z,11.33
2022-11-13T08:28:18.979Z,11.40
2022-11-13T08:29:18.970Z,11.33
2022-11-13T08:30:18.953Z,11.32
2022-11-13T08:31:18.951Z,11.36
2022-11-13T08:32:18.965Z,11.26
2022-11-13T08:33:18.922Z,11.33
2022-11-13T08:34:18.911Z,11.33
2022-11-13T08:35:19.899Z,11.41
2022-11-13T08:36:18.905Z,11.48
2022-11-13T08:37:18.889Z,11.57
2022-11-13T08:38:18.996Z,11.52
2022-11-13T08:39:18.868Z,11.60
2022-11-13T08:40:18.848Z,11.69
2022-11-13T08:41:18.837Z,11.66
2022-11-13T08:42:18.827Z,11.69
2022-11-13T08:43:18.826Z,11.78
2022-11-13T08:44:18.804Z,11.87
2022-11-13T08:45:18.798Z,11.83
2022-11-13T08:46:18.791Z,11.77
2022-11-13T08:47:18.789Z,11.60
2022-11-13T08:48:18.781Z,11.65
2022-11-13T08:49:18.762Z,11.60
2022-11-13T08:50:18.742Z,11.51
2022-11-13T08:51:18.728Z,11.45
2022-11-13T08:52:18.721Z,11.44
2022-11-13T08:53:18.721Z,11.44
2022-11-13T08:54:18.839Z,11.43
2022-11-13T08:55:18.689Z,11.48
2022-11-13T08:56:18.680Z,11.62
2022-11-13T08:57:18.672Z,11.57
2022-11-13T08:58:18.650Z,11.60
2022-11-13T08:59:18.669Z,11.63
2022-11-13T09:00:18.669Z,11.72
2022-11-13T09:01:18.618Z,11.72
2022-11-13T09:02:18.621Z,11.72
2022-11-13T09:03:18.718Z,11.75
2022-11-13T09:04:18.597Z,11.75
2022-11-13T09:05:18.583Z,11.81
2022-11-13T09:06:18.586Z,11.83
2022-11-13T09:07:21.048Z,11.90
2022-11-13T09:08:19.544Z,11.90
2022-11-13T09:09:18.533Z,11.81
2022-11-13T09:10:18.653Z,11.84
2022-11-13T09:11:18.514Z,11.84
2022-11-13T09:12:18.512Z,11.75
2022-11-13T09:13:18.493Z,11.78
2022-11-13T09:14:18.488Z,11.69
2022-11-13T09:15:23.285Z,11.72
2022-11-13T09:16:19.477Z,11.80
2022-11-13T09:17:18.470Z,11.78
2022-11-13T09:18:18.438Z,11.80
2022-11-13T09:19:18.427Z,11.75
2022-11-13T09:20:22.672Z,11.65
2022-11-13T09:21:18.404Z,11.59
2022-11-13T09:22:18.420Z,11.57
2022-11-13T09:23:18.400Z,11.52
2022-11-13T09:24:18.368Z,11.57
2022-11-13T09:25:18.356Z,11.55
2022-11-13T09:26:18.467Z,11.55
2022-11-13T09:27:18.345Z,11.57
2022-11-13T09:28:18.333Z,11.54
2022-11-13T09:29:18.316Z,11.60
2022-11-13T09:30:18.304Z,11.66
2022-11-13T09:31:18.310Z,11.63
2022-11-13T09:32:18.291Z,11.75
2022-11-13T09:33:18.290Z,11.75
2022-11-13T09:34:18.272Z,11.75
2022-11-13T09:35:18.255Z,11.77
2022-11-13T09:36:18.245Z,11.80
2022-11-13T09:37:18.226Z,11.77
2022-11-13T09:38:18.226Z,11.70
2022-11-13T09:39:18.230Z,11.77
2022-11-13T09:40:18.203Z,11.62
2022-11-13T09:41:18.184Z,11.73
2022-11-13T09:42:18.279Z,11.73
2022-11-13T09:43:18.171Z,11.86
2022-11-13T09:44:18.152Z,11.86
2022-11-13T09:45:18.153Z,11.88
2022-11-13T09:46:18.132Z,11.94
2022-11-13T09:47:18.133Z,11.99
2022-11-13T09:48:18.115Z,11.94
2022-11-13T09:49:18.106Z,11.94
2022-11-13T09:50:18.095Z,12.04
2022-11-13T09:51:18.077Z,12.09
2022-11-13T09:52:18.082Z,11.94
2022-11-13T09:53:18.061Z,12.03
2022-11-13T09:54:18.048Z,11.97
2022-11-13T09:55:18.035Z,12.04
2022-11-13T09:56:18.027Z,12.04
2022-11-13T09:57:23.064Z,12.13
2022-11-13T09:58:18.123Z,12.18
2022-11-13T09:59:18.024Z,12.29
2022-11-13T10:00:17.983Z,12.22
2022-11-13T10:01:18.019Z,12.22
2022-11-13T10:02:17.956Z,12.22
2022-11-13T10:03:39.153Z,12.27
2022-11-13T10:04:18.966Z,12.17
2022-11-13T10:05:17.930Z,12.17
2022-11-13T10:06:17.918Z,12.07
2022-11-13T10:07:17.948Z,11.99
2022-11-13T10:08:17.893Z,11.99
2022-11-13T10:09:17.876Z,11.99
2022-11-13T10:10:17.887Z,11.97
2022-11-13T10:11:17.854Z,12.04
2022-11-13T10:12:17.847Z,11.91
2022-11-13T10:13:17.850Z,12.06
2022-11-13T10:14:17.925Z,12.10
2022-11-13T10:15:17.821Z,12.03
2022-11-13T10:16:17.822Z,12.09
2022-11-13T10:17:17.786Z,12.10
2022-11-13T10:18:17.774Z,12.18
2022-11-13T10:19:17.774Z,12.17
2022-11-13T10:20:17.771Z,12.24
2022-11-13T10:21:17.748Z,12.27
2022-11-13T10:22:34.440Z,12.22
2022-11-13T10:23:18.724Z,12.29
2022-11-13T10:24:17.716Z,12.43
2022-11-13T10:25:17.709Z,12.40
2022-11-13T10:26:17.704Z,12.43
2022-11-13T10:27:17.776Z,12.42
2022-11-13T10:28:48.281Z,12.43
2022-11-13T10:29:18.688Z,12.50
2022-11-13T10:30:17.799Z,12.57
2022-11-13T10:31:17.687Z,12.60
2022-11-13T10:32:17.649Z,12.75
2022-11-13T10:33:17.636Z,12.65
2022-11-13T10:34:17.632Z,12.70
2022-11-13T10:35:17.589Z,12.55
2022-11-13T10:36:17.583Z,12.65
2022-11-13T10:37:17.614Z,12.61
2022-11-13T10:38:17.619Z,12.58
2022-11-13T10:39:17.547Z,12.58
2022-11-13T10:40:17.583Z,12.64
2022-11-13T10:41:17.556Z,12.65
2022-11-13T10:42:17.547Z,12.64
2022-11-13T10:43:17.512Z,12.58
2022-11-13T10:44:17.522Z,12.53
2022-11-13T10:45:17.509Z,12.45
2022-11-13T10:46:17.620Z,12.37
2022-11-13T10:47:26.539Z,12.32
2022-11-13T10:48:18.479Z,12.36
2022-11-13T10:49:17.475Z,12.35
2022-11-13T10:50:17.490Z,12.39
2022-11-13T10:51:17.455Z,12.35
2022-11-13T10:52:17.406Z,12.29
2022-11-13T10:53:17.397Z,12.22
2022-11-13T10:54:17.403Z,12.22
2022-11-13T10:55:17.437Z,12.31
2022-11-13T10:56:17.381Z,12.31
2022-11-13T10:57:17.377Z,12.28
2022-11-13T10:58:17.363Z,12.24
2022-11-13T10:59:17.346Z,12.28
2022-11-13T11:00:17.690Z,12.36
2022-11-13T11:01:17.392Z,12.39
2022-11-13T11:02:17.411Z,12.60
2022-11-13T11:03:17.304Z,12.55
2022-11-13T11:04:17.298Z,12.61
2022-11-13T11:05:17.266Z,12.60
2022-11-13T11:06:17.332Z,12.58
2022-11-13T11:07:20.134Z,12.65
2022-11-13T11:08:17.237Z,12.78
2022-11-13T11:09:17.230Z,12.90
2022-11-13T11:10:17.256Z,12.83
2022-11-13T11:11:17.245Z,12.83
2022-11-13T11:12:17.246Z,12.85
2022-11-13T11:13:17.241Z,12.70
2022-11-13T11:14:17.167Z,12.61
2022-11-13T11:15:17.204Z,12.58
2022-11-13T11:16:26.646Z,12.58
2022-11-13T11:17:17.151Z,12.65
2022-11-13T11:18:17.231Z,12.64
2022-11-13T11:19:17.136Z,12.70
2022-11-13T11:20:17.123Z,12.62
2022-11-13T11:21:17.090Z,12.70
2022-11-13T11:22:17.090Z,12.67
2022-11-13T11:23:17.072Z,12.75
2022-11-13T11:24:17.051Z,12.70
2022-11-13T11:25:17.039Z,12.75
2022-11-13T11:26:17.035Z,12.87
2022-11-13T11:27:17.046Z,12.91
2022-11-13T11:28:17.042Z,12.97
2022-11-13T11:29:17.007Z,13.12
2022-11-13T11:30:17.120Z,13.01
2022-11-13T11:31:16.981Z,13.11
2022-11-13T11:32:16.967Z,13.18
2022-11-13T11:33:16.968Z,13.22
2022-11-13T11:34:17.092Z,13.38
2022-11-13T11:35:16.951Z,13.39
2022-11-13T11:36:16.923Z,13.53
2022-11-13T11:37:16.920Z,13.54
2022-11-13T11:38:16.900Z,13.57
2022-11-13T11:39:16.905Z,13.74
2022-11-13T11:40:16.897Z,13.63
2022-11-13T11:41:17.169Z,13.65
2022-11-13T11:42:16.862Z,13.77
2022-11-13T11:43:16.844Z,13.85
2022-11-13T11:44:16.845Z,13.75
2022-11-13T11:45:16.857Z,13.79
2022-11-13T11:46:16.815Z,13.86
2022-11-13T11:47:16.857Z,13.85
2022-11-13T11:48:16.830Z,13.92
2022-11-13T11:49:16.811Z,13.96
2022-11-13T11:50:16.897Z,14.04
2022-11-13T11:51:16.790Z,14.10
2022-11-13T11:52:16.765Z,13.99
2022-11-13T11:53:16.744Z,14.12
2022-11-13T11:54:16.747Z,13.99
2022-11-13T11:55:16.749Z,14.18
2022-11-13T11:56:16.710Z,14.20
2022-11-13T11:57:16.707Z,14.29
2022-11-13T11:58:16.715Z,14.25
2022-11-13T11:59:16.674Z,14.22
2022-11-13T12:00:16.689Z,14.29
2022-11-13T12:01:16.656Z,14.20
2022-11-13T12:02:16.682Z,14.05
2022-11-13T12:03:16.641Z,14.07
2022-11-13T12:04:16.626Z,14.10
2022-11-13T12:05:19.907Z,14.07
2022-11-13T12:06:16.715Z,14.03
2022-11-13T12:07:16.587Z,13.95
2022-11-13T12:08:16.610Z,14.03
2022-11-13T12:09:16.611Z,14.12
2022-11-13T12:10:16.580Z,14.05
2022-11-13T12:11:16.545Z,14.17
2022-11-13T12:12:16.548Z,14.12
2022-11-13T12:13:16.535Z,14.20
2022-11-13T12:14:16.543Z,14.22
2022-11-13T12:15:16.515Z,14.23
2022-11-13T12:16:19.806Z,14.33
2022-11-13T12:17:17.565Z,14.30
2022-11-13T12:18:16.470Z,14.43
2022-11-13T12:19:16.491Z,14.50
2022-11-13T12:20:16.449Z,14.47
2022-11-13T12:21:16.435Z,14.58
2022-11-13T12:22:16.539Z,14.63
2022-11-13T12:23:16.421Z,14.66
2022-11-13T12:24:16.414Z,14.66
2022-11-13T12:25:16.726Z,14.72
2022-11-13T12:26:16.392Z,14.78
2022-11-13T12:27:16.373Z,14.96
2022-11-13T12:28:16.371Z,14.97
2022-11-13T12:29:16.349Z,14.97
2022-11-13T12:30:16.402Z,15.02
2022-11-13T12:31:16.366Z,15.10
2022-11-13T12:32:16.327Z,15.14
2022-11-13T12:33:16.309Z,15.15
2022-11-13T12:34:16.310Z,15.09
2022-11-13T12:35:16.288Z,15.21
2022-11-13T12:36:16.294Z,15.17
2022-11-13T12:37:16.285Z,15.19
2022-11-13T12:38:16.356Z,15.21
2022-11-13T12:39:16.247Z,15.19
2022-11-13T12:40:16.229Z,15.21
2022-11-13T12:41:16.317Z,15.09
2022-11-13T12:42:16.276Z,14.84
2022-11-13T12:43:16.212Z,14.72
2022-11-13T12:44:16.198Z,14.58
2022-11-13T12:45:16.179Z,14.54
2022-11-13T12:46:16.159Z,14.50
2022-11-13T12:47:16.192Z,14.33
2022-11-13T12:48:16.153Z,14.29
2022-11-13T12:49:16.136Z,14.32
2022-11-13T12:50:16.127Z,14.33
2022-11-13T12:51:16.120Z,14.37
2022-11-13T12:52:16.105Z,14.48